dimanche 04 mars 2018

Le Classement original se trouve sur : http://www.chronorace.be        
 
CHALLENGE DELHALLE
LE CROSS DE BOUSVAL
DISTANCE : 15.00 km
dimanche 04 mars 2018
 
Place Dos NOM Equipe Catégorie Pl/cat temps temps/km Vitesse
1 1269 ROELS JONAS WATERMOLEN SH 1 0:50:21 03:21 17.88
2 5291 BALTY PIERRE   SH 2 0:51:24 03:26 17.51
3 5350 DUPONT FRANCOIS   SH 3 0:52:11 03:29 17.25
4 410 MOTTOUL VINCENT   V1 1 0:52:21 03:29 17.20
5 840 RAEMACKERS CÉDRIC JOGGPLUS SH 4 0:53:22 03:33 16.87
6 794 RICHARD BASILE ESCALPADE SH 5 0:53:42 03:35 16.76
7 1132 BERTHE BENOÎT   SH 6 0:53:59 03:36 16.68
8 5260 CRICKILLON TANCREDE   SH 7 0:54:06 03:36 16.64
9 20 LOQUET THOMAS ETCHIEVRES SH 8 0:54:40 03:39 16.47
10 238 VAN DEN ABEELE SEBASTIAN JOGGING PLUS V1 2 0:54:47 03:39 16.43
11 704 CHATELAIN JULIEN   SH 9 0:55:21 03:41 16.26
12 242 LEFÈVRE AURÉLIEN TRIGT SH 10 0:55:33 03:42 16.21
13 1270 ROELANDT IVO   SH 11 0:55:37 03:42 16.19
14 379 MOUCHET STEPHANE JACO V1 3 0:55:50 03:43 16.12
15 1131 DE BLANDER GUY   V2 1 0:56:04 03:44 16.06
16 761 CHENUT SÉBASTIEN OSGA V1 4 0:56:14 03:45 16.01
17 338 HEUNINCK ALEXANDRE   SH 12 0:56:25 03:46 15.96
18 363 MARCHAL GILLES GAG-RUNATTITUDE SH 13 0:56:51 03:47 15.84
19 4011 CAVYN JEAN-PHILIPPE   V2 2 0:57:23 03:49 15.69
20 913 BOUGHRAD MOHAMED KALENJI TEAM SH 14 0:57:27 03:50 15.67
21 5289 IWENS ALAIN   V2 3 0:57:47 03:51 15.58
22 403 POCHET ALEXANDRE JCCS V1 5 0:58:13 03:53 15.46
23 1201 GALERIN DENIS RONVAU SH 15 0:58:20 03:53 15.43
24 5252 CHARLIER ARTHUR   SH 16 0:58:22 03:53 15.42
25 5354 BOGAERT JEAN-CHARLES   SH 17 0:58:26 03:54 15.41
26 1254 TONDEUR ALEXANDRA   SD 1 0:58:38 03:54 15.35
27 5312 COLLAER CHRISTOPHE RCB SH 18 0:58:42 03:55 15.34
28 4 VANDERBECK YVES RONVAU V2 4 0:58:51 03:55 15.30
29 263 DELCHAMBRE FREDERIC FOULÉES DU PLAI V1 6 0:58:57 03:56 15.27
30 703 BRUYERE PATRICK BOUFFIOLS V1 7 0:59:01 03:56 15.25
31 785 BOURNONVILLE RUDDY CAPTRAIL V1 8 0:59:07 03:56 15.23
32 477 FIASSE FRANÇOIS   V1 9 0:59:11 03:57 15.21
33 5384 VERDOOT XAVIER   V1 10 0:59:15 03:57 15.19
34 173 ROB VINCENT XYD-FLEU SH 19 0:59:18 03:57 15.18
35 12 BULTOT CHRISTIAN   V3 1 0:59:22 03:57 15.16
36 1236 GHILAIN OLIVIER KURISTO SH 20 0:59:29 03:58 15.13
37 138 BRUWIER JEAN-PAUL ZATOPEK MAGAZIN V1 11 0:59:48 03:59 15.05
38 1174 BALESTRIE BENOÎT TURBO SH 21 1:00:19 04:01 14.93
39 5382 DE CREMER FABIAN ULTIM TRAKKS SH 22 1:00:48 04:03 14.81
40 412 CULOT JEAN-MARC   V2 5 1:00:50 04:03 14.80
41 151 DECAMP JEROME RUNATTITUDE SH 23 1:00:53 04:03 14.79
42 1252 BOLAND PATRICK   V1 12 1:00:58 04:04 14.77
43 376 CAPELLE CHRISTIAN RCB V2 6 1:01:14 04:05 14.70
44 5301 DEMUYT RAPHAEL   V1 13 1:01:28 04:06 14.65
45 720 DE CONINCK BENOIT BINDE À MICKEY V1 14 1:01:29 04:06 14.64
46 576 RIVEZ PIERRE LA THURE V3 2 1:01:32 04:06 14.63
47 533 TREVISAN DAVID BOUFFIOLS V1 15 1:01:35 04:06 14.62
48 290 BALLEUX CHRISTOPHE   V1 16 1:01:37 04:06 14.61
49 215 VRANCKEN MARC   V3 3 1:01:48 04:07 14.57
50 335 LECLEF JULIEN CPMV6 SH 24 1:02:07 04:08 14.49
51 787 RICHARD PIERRE ESCALPADE V2 7 1:02:12 04:09 14.47
52 18 HAULAIT SANDRA CEPAL SD 2 1:02:16 04:09 14.46
53 777 DESTREBECQ FRANCOIS ETCHIEVRES V1 17 1:02:26 04:10 14.42
54 5496 DAMOISEAUX VINCENT KURISTO V2 8 1:02:30 04:10 14.40
55 9645 CEULEMANS JONATHAN   SH 25 1:02:37 04:10 14.38
56 5255 CHAMPIONT JULIET RIWA/SWIFT/TRAK SD 3 1:02:44 04:11 14.35
57 1238 LAHAYE VINCENT RUNNIN'GREZ SH 26 1:02:55 04:12 14.31
58 5326 RENARD BRUNO CPMV NALINNES V1 18 1:03:27 04:14 14.19
59 4012 PUTZEYS MATHIEU TRAINING 7 V1 19 1:03:33 04:14 14.17
60 5327 NOUAMANI MOHAMED JOGGANS V1 20 1:03:38 04:14 14.15
61 984 BLONDEAUX YANNICK   V1 21 1:03:46 04:15 14.12
62 5300 VANDERLINDEN MARC TRAINING 7 V3 4 1:03:55 04:16 14.08
63 236 DUYCK XAVIER   V2 9 1:04:14 04:17 14.02
64 748 SALAZAR NOEL RUN IN BRUSSELS V1 22 1:04:23 04:17 13.98
65 1181 DOR VINCENT ANTILOB SH 27 1:04:25 04:18 13.98
66 1243 ELOIN DAMIEN   SH 28 1:04:43 04:19 13.91
67 294 HASSOUTE EL MOUSTAFA MYSTERE V2 10 1:04:44 04:19 13.91
68 275 FILÉE ERIC   V2 11 1:04:48 04:19 13.89
69 342 LOMBART FRÉDÉRIC GAG V2 12 1:04:57 04:20 13.86
70 4010 VAN POUCKE CEDRIC   SH 29 1:05:07 04:20 13.83
71 1180 SCHREURS SÉBASTIEN URBAN TRI TEAM V1 23 1:05:10 04:21 13.81
72 571 PUOZZO NATHAN ARAMIS RUNNING SH 30 1:05:11 04:21 13.81
73 5315 DEMUYSER SPTW SH 31 1:05:14 04:21 13.80
74 798 DEBONI MALORIE MYSTERE SD 4 1:05:30 04:22 13.74
75 5353 KERVYN THIBAULT   V1 24 1:05:31 04:22 13.74
76 5490 BOCKS OLIVIER   xxx   1:05:36 04:22 13.72
77 4002 BOEDT NICOLAS   SH 32 1:05:55 04:24 13.66
78 425 DE GRAVE OLIVIER MYSTERE V2 13 1:06:03 04:24 13.63
79 983 CULLOP PAUL ENJAMBEE V2 14 1:06:13 04:25 13.60
80 1125 HAMMER BRYAN   V1 25 1:06:26 04:26 13.55
81 397 SACRÉ RÉMI MYRUN SH 33 1:06:28 04:26 13.54
82 921 ROSSI CLAUDE   V3 5 1:06:30 04:26 13.54
83 1216 LAURENT JOHN ARCH V1 26 1:06:35 04:26 13.52
84 5269 LEPOUTRE FREDERIC   V1 27 1:06:38 04:26 13.51
85 1141 COBBAERT NICOLAS ANTILOB SH 34 1:06:39 04:27 13.51
86 815 DE PRINS JEAN-FRANÇOIS   SH 35 1:06:43 04:27 13.49
87 583 VAN RAEMDONCK GILLES RIWA V2 15 1:06:44 04:27 13.49
88 1249 SYKOVARIS STAMATIOS GANT V2 16 1:06:44 04:27 13.49
89 5293 CESAR VINCENT   V1 28 1:06:51 04:27 13.47
90 811 GIGOT JACQUES CEPAL V2 17 1:06:59 04:28 13.44
91 289 MARLÉ LAURENT   V1 29 1:07:02 04:28 13.43
92 5288 DE BIE WALTER   V3 6 1:07:03 04:28 13.43
93 5321 MURILLO HENRY SPT WAVRE SH 36 1:07:11 04:29 13.40
94 1117 CIESIELSKI MARCIN   SH 37 1:07:16 04:29 13.38
95 1230 PÉRISSE FRANÇOIS   V2 18 1:07:24 04:30 13.36
96 5358 DEWANDRE THOMAS   SH 38 1:07:40 04:31 13.30
97 1266 VIAL BERTRAND MYSTERE SH 39 1:07:47 04:31 13.28
98 5271 MAKUMBA BENJAMIN RCBT V1 30 1:07:49 04:31 13.27
99 956 BARTOSZUK ROMAN   V1 31 1:07:49 04:31 13.27
100 5266 JOLY LUCAS   V1 32 1:07:55 04:32 13.26
101 1227 FRENNET PHILIPPE RCBT SH 40 1:07:58 04:32 13.25
102 1118 DEFALQUE QUENTIN   V2 19 1:07:58 04:32 13.25
103 390 GERARDIN BEATRICE JACO A1 1 1:08:08 04:32 13.21
104 78 DUTRIEUX FERNAND   V1 33 1:08:11 04:33 13.20
105 5334 LACKNER KEVIN   SH 41 1:08:17 04:33 13.18
106 942 SERGYSELS PASCAL JOGGANS V2 20 1:08:18 04:33 13.18
107 146 VAN NEVEL FRANS   V3 7 1:08:19 04:33 13.18
108 332 HANNARD KEVIN   SH 42 1:08:23 04:33 13.16
109 5386 GORDIER PASCAL UTT V1 34 1:08:26 04:34 13.16
110 1196 CANON MATHIEU LDLV V1 35 1:08:27 04:34 13.15
111 1225 RAVYTS ALAIN   V2 21 1:08:33 04:34 13.13
112 5290 DARGE OLIVIER   V1 36 1:08:34 04:34 13.13
113 495 DAMBOIS THIERRY   V1 37 1:08:36 04:34 13.12
114 1144 DE PRA DAMIEN   SH 43 1:08:38 04:34 13.12
115 60 VANHOYE PASCAL   V2 22 1:08:44 04:35 13.10
116 250 MAQUET DENIS   SH 44 1:08:46 04:35 13.09
117 839 POUCET BENOIT JACO V2 23 1:08:57 04:36 13.06
118 641 BRUNIN CHRISTOPHE GAG V1 38 1:08:59 04:36 13.05
119 264 SCAILLET VINCENT HASTRAIL SINGLE V1 39 1:09:03 04:36 13.04
120 5319 DE CREMER THIERRY ULTIMO V1 40 1:09:09 04:37 13.02
121 626 LAMBERT CARL GAG V2 24 1:09:16 04:37 13.00
122 237 DOS SANTOS SERGIO JOGGPLUS V1 41 1:09:23 04:37 12.98
123 5336 KNOCKAERT PASCAL   V1 42 1:09:26 04:38 12.97
124 58 HENRY ANDRE RCB V2 25 1:09:31 04:38 12.95
125 1224 ERNST XAVIER   SH 45 1:09:41 04:39 12.92
126 5356 BARATA HORACIO KURISTO V2 26 1:09:43 04:39 12.91
127 220 KEISER NICOLAS JC HSH SH 46 1:09:44 04:39 12.91
128 5294 VAN CAMP JEAN-FRANCOIS POTOS V1 43 1:09:45 04:39 12.91
129 21 TOUSSAINT FRANK SCBUTG V2 27 1:09:46 04:39 12.90
130 373 ORTEGA-TORRES ENRIQUE RRTCHATELET-ATC V3 8 1:09:49 04:39 12.89
131 1155 SCOUBEAU OLIVIER HAC V2 28 1:09:50 04:39 12.89
132 404 TILBURGS FRANK AVN V2 29 1:09:50 04:39 12.89
133 92 HENRY ROBERT   V3 9 1:10:05 04:40 12.85
134 486 CANIVET ROLAND BOUFFIOLS V4 1 1:10:10 04:41 12.83
135 702 GIOVANNANGELO ALAIN ESM V3 10 1:10:10 04:41 12.83
136 1217 MICHOTTE MARC KURISTO V2 30 1:10:16 04:41 12.81
137 1152 BERGER MARC JCPMF GENAPPE V2 31 1:10:18 04:41 12.81
138 42 ROBERTI DAPHNÉ RCNAMUR / METTE A1 2 1:10:24 04:42 12.79
139 5251 CHARLIER ALAIN   V1 44 1:10:25 04:42 12.78
140 135 LEVACQ GUY LDLV V4 2 1:10:26 04:42 12.78
141 3861 DEFALQUE ANTILOB V2 32 1:10:30 04:42 12.77
142 5383 CASTIAUX JOSE   V3 11 1:10:39 04:43 12.74
143 5352 IKER FRANCOIS   SH 47 1:10:42 04:43 12.73
144 1116 URBAIN BAUDOUIN   V1 45 1:10:42 04:43 12.73
145 4050 MEURICE PHILIPPE KURISTO V1 46 1:10:43 04:43 12.73
146 5337 VANDEKERCKHOVE PHILLIP TOU'SPORT1 V1 47 1:10:43 04:43 12.73
147 5267 DESQUESNES VINCENT   V1 48 1:10:44 04:43 12.73
148 567 DECLERCQ JOE CEPAL V3 12 1:10:44 04:43 12.73
149 30 HANNOTTE CHRISTOPHE RUNNING FERNELM V1 49 1:10:47 04:43 12.72
150 663 MASSART JEAN-FREDERIC GAG V2 33 1:10:55 04:44 12.69
151 762 ASTRUC VICTOR ENJAMBEE SH 48 1:11:02 04:44 12.67
152 5320 BELANGE LAURENT ANTILOB V1 50 1:11:05 04:44 12.66
153 266 MUNAUT JEREMY RCNAMUR V1 51 1:11:23 04:45 12.61
154 695 DE DAPPER DAVID MYSTERE V1 52 1:11:35 04:46 12.58
155 1239 MERCHIE FRÉDÉRIC MYSTERE V1 53 1:11:36 04:46 12.57
156 5381 VAN CASTER ERIC   V1 54 1:11:36 04:46 12.57
157 5363 MORALES RAFAEL SWIFT V1 55 1:11:37 04:46 12.57
158 1245 WILLAME THOMAS TURBO SH 49 1:11:39 04:47 12.56
159 1228 ANDRE GUILLAUME   SH 50 1:11:43 04:47 12.55
160 1262 BRISMÉ CLAUDE   SH 51 1:12:11 04:49 12.47
161 221 KLEMENCIC SCHMIDT NASTJA   A1 3 1:12:14 04:49 12.46
162 531 ANTENUCCI MAURO ESM V3 13 1:12:23 04:49 12.44
163 5274 HEYMANS STEPHANE   V1 56 1:12:25 04:50 12.43
164 767 HOUDMONT ARNAUD   V2 34 1:12:31 04:50 12.41
165 5313 GUERY ALAN   V1 57 1:12:45 04:51 12.37
166 5362 STATSYNS JEAN-FRANCOIS   V2 35 1:12:49 04:51 12.36
167 5341 GOOSSENS XAVIER JCPMF GENAPPE SH 52 1:12:50 04:51 12.36
168 654 KIPS DAVID RCNAMUR SH 53 1:12:52 04:51 12.35
169 841 SALVATO DOMENICO MYSTERE V2 36 1:12:53 04:51 12.35
170 1231 LUYTS EMIEL   V2 37 1:13:02 04:52 12.33
171 463 DEMIN MICHEL TEAM MARCEL V2 38 1:13:03 04:52 12.32
172 896 GODFROID LUCIE MYSTERE SD 5 1:13:06 04:52 12.32
173 5264 HANKENNE GREGORY   SH 54 1:13:06 04:52 12.32
174 5494 KAMP OLIVIER   V1 58 1:13:07 04:52 12.31
175 693 CHAUVIER JEAN-PIERRE   V2 39 1:13:09 04:53 12.31
176 5491 HENROTTE JULIEN   SH 55 1:13:11 04:53 12.30
177 16 DEVOS RENÉ JC INCOURT V2 40 1:13:19 04:53 12.28
178 608 ROSSI STEPHANE SCBUTG V2 41 1:13:30 04:54 12.25
179 1268 RANDALL CHRISTOPHER RUN4VILLERS V2 42 1:13:33 04:54 12.24
180 821 JUDEX JEAN-MICHEL RCNAMUR V2 43 1:13:36 04:54 12.23
181 969 FRIPIAT DIDIER RCNAMUR V1 59 1:13:39 04:55 12.22
182 1199 ROULETTE ETIENNE   SH 56 1:13:43 04:55 12.21
183 194 AUBERT SERGE   V3 14 1:13:45 04:55 12.21
184 5370 LAMBERT ANTOINE   SH 57 1:13:45 04:55 12.21
185 5328 BONTEMPS SEBASTIEN   V1 60 1:13:45 04:55 12.21
186 5371 MOERMAN JONAS   V1 61 1:13:47 04:55 12.20
187 714 MAILIER CHRISTIAN ESM V3 15 1:13:50 04:55 12.19
188 685 LETELLIER JEAN-LUC MYSTERE V2 44 1:13:53 04:55 12.18
189 5265 REY PHILIPPE   V2 45 1:13:58 04:56 12.17
190 5367 TORRES RICARDO   V1 62 1:14:04 04:56 12.15
191 836 VERBRUGGEN PHILIPPE CAP VITA V1 63 1:14:05 04:56 12.15
192 1147 MARCHAL FRÉDÉRIC   SH 58 1:14:07 04:56 12.15
193 395 FOHAL JEAN-LUC ETCHIEVRES V2 46 1:14:10 04:57 12.14
194 954 VERVLOESEM XAVIER TOU'SPORT1 V2 47 1:14:15 04:57 12.12
195 731 DEPOUILLE HENRI-FRANÇOIS   V1 64 1:14:21 04:57 12.11
196 525 PERVEUX OLIVIER FORESTIERE V1 65 1:14:25 04:58 12.10
197 5335 GALLUCCIO GAEL JCPMF GENAPPE SH 59 1:14:28 04:58 12.09
198 1250 CAWET DAPHNÉ MYSTERE SD 6 1:14:29 04:58 12.09
199 1188 HOLOFFE DIDIER AS. SAINT ETIEN V2 48 1:14:31 04:58 12.08
200 711 FLORE CARLO BOUFFIOLS V2 49 1:14:32 04:58 12.08
201 768 COSTANZO ERASMO BOUFFIOLS SH 60 1:14:32 04:58 12.08
202 1148 BONSIGNORE VINCENZO   V2 50 1:14:33 04:58 12.08
203 5310 DEMOULIN NICOLAS   V1 66 1:14:41 04:59 12.05
204 4018 BARTHOLOME GREGORY   SH 61 1:14:44 04:59 12.05
205 466 DEMOULIN BRIGITTE RCNAMUR A2 1 1:14:52 04:59 12.02
206 326 OYARZABAL JONATHAN SWIFT / SPTW SH 62 1:14:55 05:00 12.02
207 43 SEGHIN VINCENT ESM V2 51 1:15:01 05:00 12.00
208 5498 GAUROY BENJAMIN   SH 63 1:15:01 05:00 12.00
209 203 ALBERT MICHEL USBW RT V2 52 1:15:03 05:00 12.00
210 615 MAUS JAN   V3 16 1:15:10 05:01 11.98
211 4001 LEONARD ANNE   A1 4 1:15:12 05:01 11.97
212 1172 PRÉAT JEAN-PIERRE   SH 64 1:15:15 05:01 11.96
213 1213 EGGERICKX PIERRE TRIGT SH 65 1:15:15 05:01 11.96
214 1209 LECOCQ AMAURY   SH 66 1:15:16 05:01 11.96
215 5333 JOSSAER FRANKY TOUSPORT V2 53 1:15:17 05:01 11.96
216 1138 BRUGGEMAN DAVID SPTWAVRE V1 67 1:15:20 05:01 11.95
217 1183 CLERBOIS SÉBASTIEN   SH 67 1:15:20 05:01 11.95
218 4016 DE BACKER ERWIN   V3 17 1:15:23 05:01 11.94
219 1153 ROELANDTS SOPHIE CEPAL SD 7 1:15:27 05:02 11.93
220 558 D'ANGELO AMERINO ZATAC CHARLEROI V2 54 1:15:33 05:02 11.92
221 848 DEVIERE MICHEL FORESTIERE V2 55 1:15:34 05:02 11.91
222 5373 BEUN MAGALI   A1 5 1:15:38 05:02 11.90
223 157 DESCAMPS JONATHAN   SH 68 1:15:42 05:03 11.89
224 974 LESOIL PHILIPPE ENJAMBEE V2 56 1:15:48 05:03 11.88
225 1139 GODFURNON FABRICE OCAN SH 69 1:15:56 05:04 11.86
226 743 RATINCKX MICHEL HERMATHENAE V3 18 1:15:58 05:04 11.85
227 1128 PENA-WILSON VICTOR   SH 70 1:16:01 05:04 11.84
228 431 MARTIN ERIC   V2 57 1:16:14 05:05 11.81
229 5331 REINARZ RAPHAEL   SH 71 1:16:15 05:05 11.81
230 5276 LESNE DIDIER LDLV V2 58 1:16:16 05:05 11.80
231 469 JOLY VAUDOISEY ANNE TRAINING 7 A2 2 1:16:19 05:05 11.80
232 757 LIÉGEOIS NICOLAS SPORT & FUN V1 68 1:16:39 05:07 11.75
233 1195 MACHIELS HEIDI GANT - JOGGANS A1 6 1:16:39 05:07 11.75
234 1261 LECUIVRE CORINNE KURISTO A1 7 1:16:42 05:07 11.74
235 5372 LIBERT DANIEL ANTILOB V2 59 1:16:44 05:07 11.73
236 45 PLOYAERT ERIC   V3 19 1:16:50 05:07 11.72
237 5278 HENDERYCKX PIERRE RUNNIN'GREZ V2 60 1:16:52 05:07 11.71
238 5348 BACHMANN MARC RUNNIN'GREZ V2 61 1:16:52 05:07 11.71
239 1186 LOYEZ MATHIEU USBW SH 72 1:17:04 05:08 11.68
240 1099 CHAUVIN SARAH   A1 8 1:17:04 05:08 11.68
241 5377 WANIN JOHAN   SH 73 1:17:06 05:08 11.68
242 5380 GOETHAS EMMANUEL   SH 74 1:17:07 05:08 11.67
243 5253 QUIQUE JONATHAN GAG SH 75 1:17:08 05:08 11.67
244 398 NENNEN ARNAUD SMAC V2 62 1:17:10 05:09 11.67
245 5280 WORONOFF CONSTANTIN   SH 76 1:17:12 05:09 11.66
246 51 WARIN DIDIER   V2 63 1:17:17 05:09 11.65
247 128 BAURIN HERVE   V2 64 1:17:22 05:09 11.64
248 822 LECERF JEAN LUC JOGGANS V3 20 1:17:25 05:10 11.63
249 5270 VANDAM JEAN   V2 65 1:17:35 05:10 11.60
250 5364 BAETENS DAMIEN   SH 77 1:17:38 05:10 11.60
251 5254 GONZE MICHEL UTT V3 21 1:17:38 05:10 11.60
252 5305 MONTEGNIES MARYLENE   SD 8 1:17:39 05:11 11.59
253 5378 DUVIVIER THIBAUD   SH 78 1:17:50 05:11 11.57
254 1221 HARDY JEAN-PHILIPPE   SH 79 1:17:53 05:11 11.56
255 764 SEVERINO THOMAS BOUFFIOLS SH 80 1:17:57 05:12 11.55
256 5369 CAMARERO VERDE LINDA   SD 9 1:17:58 05:12 11.55
257 324 FAVETTE ASTRID SPTWAVRE SD 10 1:18:01 05:12 11.54
258 99 GLORIEUX FRÉDÉRIC   V1 69 1:18:01 05:12 11.54
259 364 WOUTERS LUC JOKA V2 66 1:18:05 05:12 11.53
260 22 DE MASI GIANNI   V3 22 1:18:05 05:12 11.53
261 5259 PALOMBO AGOSTINO KURISTO V1 70 1:18:12 05:13 11.51
262 388 BUCHET FREDERIC MYSTERE V1 71 1:18:37 05:14 11.45
263 357 FERAUCHE JEAN-MARIE   V3 23 1:18:42 05:15 11.44
264 1158 CORNET DAMIEN KURISTO V1 72 1:18:46 05:15 11.43
265 5283 MERTENS PATRICIA   A2 3 1:18:47 05:15 11.43
266 426 QUINET BERNARD   V3 24 1:18:48 05:15 11.42
267 1267 VERBEEK JEAN-LUC   V3 25 1:18:59 05:16 11.40
268 1258 VERBAERE PASCAL   V2 67 1:19:13 05:17 11.36
269 557 VOLON PATRICK MPW V2 68 1:19:20 05:17 11.35
270 664 DROMELET BÉRANGÈRE SPTWAVRE A2 4 1:19:23 05:17 11.34
271 780 PUFFET BERTRAND LA VINOTHEQUE T V1 73 1:19:24 05:18 11.34
272 807 SCAUT PIERRE JC HSH SH 81 1:19:27 05:18 11.33
273 782 JAROUD SAID   V1 74 1:19:28 05:18 11.33
274 5344 COURTIN BRUNO   V1 75 1:19:29 05:18 11.33
275 5317 MILLS TIM RCB V2 69 1:19:32 05:18 11.32
276 5322 PIRENNE ANTOINE   SH 82 1:19:35 05:18 11.31
277 1212 VASCONCELOS LUIS   V2 70 1:19:41 05:19 11.30
278 1103 SNICKERS MARION   SD 11 1:19:42 05:19 11.30
279 1102 DEFOURNY NOÉMIE GAZELLE SD 12 1:19:42 05:19 11.30
280 1241 PROULT CHRISTOPHE   V1 76 1:19:48 05:19 11.28
281 1193 HANUISE CHRISTEL ETCHIEVRES A1 9 1:20:00 05:20 11.25
282 1265 DE LEENER JEAN-MARIE NAC V3 26 1:20:05 05:20 11.24
283 5343 GROSSEN ROLANDE   A3 1 1:20:17 05:21 11.21
284 4013 MARCHAL PATRICK GAG V2 71 1:20:18 05:21 11.21
285 1129 WILSON JÉRÔME-JONATHAN   V1 77 1:20:24 05:22 11.20
286 132 BENALI HICHAM MYSTERE V1 78 1:20:24 05:22 11.20
287 1237 DEMARTEAU ALAIN   V2 72 1:20:27 05:22 11.19
288 331 GODFROID YAEL MYSTERE SD 13 1:20:34 05:22 11.17
289 876 GODFROID YVES MYSTERE V2 73 1:20:34 05:22 11.17
290 502 AERTS CATHLYNE JOGGANS A2 5 1:20:41 05:23 11.16
291 307 DOUDELET BRIGITTE   A3 2 1:20:47 05:23 11.14
292 5368 KINARD BRUNO   V1 79 1:20:49 05:23 11.14
293 5257 GILBERT MARIUS   V1 80 1:20:55 05:24 11.13
294 5308 GRANDELET PHILIPPE   V1 81 1:20:55 05:24 11.13
295 5297 ANGELY GAETAN USBW V4 3 1:20:57 05:24 11.12
296 819 PIRSON FLORENCE   A1 10 1:21:03 05:24 11.11
297 1192 HOTAT MICHEL JAMES V1 82 1:21:04 05:24 11.11
298 653 SERON BENOIT   V2 74 1:21:06 05:24 11.10
299 5489 CAMPION SYLVAIN   V2 75 1:21:09 05:25 11.09
300 1234 REDMOND CHRIS   V2 76 1:21:11 05:25 11.09
301 725 TROUPIN CÉCILE JC HSH A1 11 1:21:16 05:25 11.08
302 5330 MILLET EMILIE   SD 14 1:21:17 05:25 11.08
303 77 MEZIANI MOHAND MYSTERE V2 77 1:21:17 05:25 11.08
304 919 BORCEUX PAULINE RCNAMUR SD 15 1:21:24 05:26 11.06
305 5387 BASILE MATTEO   JH 1 1:21:32 05:26 11.04
306 5282 FOUCART VINCENT   SH 83 1:21:34 05:26 11.04
307 5311 GHISLAIN PHILIPPE ATCC V1 83 1:21:39 05:27 11.03
308 5324 VERBOOMEN JEAN-LOUIS   V2 78 1:21:43 05:27 11.02
309 5316 DAVID DIDIER CERCLE BRUGGE V2 79 1:21:44 05:27 11.01
310 1130 TRÉFOIS ANNE   SD 16 1:21:46 05:27 11.01
311 5279 WILLAME DIDIER TURBO V2 80 1:21:46 05:27 11.01
312 692 ROBERT MICHEL BOUFFIOLS V3 27 1:21:58 05:28 10.98
313 5355 STEVENS ELS   A1 12 1:22:08 05:28 10.96
314 5332 BERGIERS PASCALE   A2 6 1:22:08 05:28 10.96
315 494 MATHY JEAN-LUC RCNAMUR V3 28 1:22:28 05:30 10.92
316 849 ABRAHAM LUC USBW ROAD TEAM V3 29 1:22:31 05:30 10.91
317 1247 VERHELLE THIERRY   V2 81 1:22:33 05:30 10.91
318 177 HIGUET PIERRE JCCS V2 82 1:22:35 05:30 10.90
319 5287 PAGE THIBAULT JE COURS A INCO SH 84 1:22:47 05:31 10.87
320 14 COLMANT OLIVIER JC INCOURT V3 30 1:22:48 05:31 10.87
321 507 MARLOYE LUC JC INCOURT V2 83 1:22:48 05:31 10.87
322 555 THIROT ALAIN JOGGANS V3 31 1:23:09 05:33 10.83
323 992 LETHÉ VINCENT RONVAU V2 84 1:23:16 05:33 10.81
324 1185 PATERNOSTRE JEAN-JACQUES WAIKIKI V2 85 1:23:18 05:33 10.81
325 1170 PIERMAN BAUDOUIN RUN TEAM AG V3 32 1:23:24 05:34 10.79
326 5342 REUSS BENOIT   V2 86 1:23:24 05:34 10.79
327 1264 TEKO MAURICE MYSTERE V1 84 1:23:27 05:34 10.79
328 4035 SEFIANI HANANE   SD 17 1:23:28 05:34 10.79
329 273 SABLON DOMINIQUE   V1 85 1:23:35 05:34 10.77
330 5277 OCHOA MARIA RCB A2 7 1:23:37 05:34 10.77
331 1123 RAGANATO JEREMY TOU'SPORT1 SH 85 1:23:43 05:35 10.75
332 808 CHABEAU VINCIANE ANTILOB A2 8 1:23:49 05:35 10.74
333 301 QUINET JEAN PAUL   V3 33 1:24:01 05:36 10.72
334 499 PILI JACQUES   V1 86 1:24:13 05:37 10.69
335 1260 BROGNIEZ NADÈGE KURISTO SD 18 1:24:18 05:37 10.68
336 361 VAN LAETHEM ELOI   V3 34 1:24:19 05:37 10.68
337 5366 TORRES FABRIZIO   V1 87 1:24:19 05:37 10.68
338 296 DESSEILLE ERNEST RCNAMUR V3 35 1:24:24 05:38 10.67
339 812 BATISTIC PATRICK RONVAU V2 87 1:24:27 05:38 10.66
340 239 ALHADEFF LAURENT   V1 88 1:24:29 05:38 10.66
341 1122 MESTACH CRISTINE   A2 9 1:24:43 05:39 10.63
342 561 HAINAUT CHARLES   V2 88 1:24:44 05:39 10.62
343 623 PISCART PIERRE FORESTIERE V2 89 1:24:48 05:39 10.62
344 755 VAN HEULENBERGHE FRANK   V3 36 1:24:52 05:39 10.61
345 1194 PEETERS QUENTIN SPTWAVRE SH 86 1:24:54 05:40 10.60
346 5339 VANDERPLAETSE VANESSA   A1 13 1:25:00 05:40 10.59
347 57 ZEGERS ROLLAND   V3 37 1:25:02 05:40 10.59
348 71 DE HERTOG DANIEL AFRIT 7 V2 90 1:25:02 05:40 10.59
349 606 MIDDEL INE   A3 3 1:25:05 05:40 10.58
350 383 MAGOTTE OLIVIER JAMES V1 89 1:25:08 05:40 10.57
351 5268 COOLS CHRISTIAN JAMES V3 38 1:25:10 05:41 10.57
352 686 LIGNY CAROLINE MYSTERE A2 10 1:25:19 05:41 10.55
353 1244 BOSMANS CHRISTELLE   A1 14 1:25:22 05:41 10.55
354 4034 SCHEPMAN CLEMENT   JH 2 1:25:27 05:42 10.54
355 1137 LEMAINE DOMINIQUE   V2 91 1:25:34 05:42 10.52
356 893 VERGISON ANNE MYSTERE A1 15 1:25:37 05:42 10.51
357 1257 VANDEN DRIESCH FRANÇOIS   V2 92 1:25:42 05:43 10.50
358 5360 JORIS LAURENT   V1 90 1:25:43 05:43 10.50
359 1100 HERBOTS JESSICA   SD 19 1:25:48 05:43 10.49
360 1101 NOEL NICOLAS   SH 87 1:25:48 05:43 10.49
361 4008 PIERARD CARINE   A2 11 1:25:48 05:43 10.49
362 1145 FOSTER CHRIS   A2 12 1:25:57 05:44 10.47
363 1190 GENET MAGALI   A1 16 1:25:59 05:44 10.47
364 5275 DELAYS NICOLAS FOSSIS SH 88 1:26:00 05:44 10.47
365 406 DELATTE OLIVIER MYSTERE V2 93 1:26:11 05:45 10.45
366 1255 BLEUS XAVIER KURISTO SH 89 1:26:23 05:45 10.42
367 5256 LEROY PHILIPPE   V1 91 1:26:28 05:46 10.41
368 1150 JACOBS PIERRE   V1 92 1:26:30 05:46 10.41
369 722 WILLEMS ESTELLE   SD 20 1:26:39 05:47 10.39
370 738 WILLEMS LUC   V2 94 1:26:39 05:47 10.39
371 514 GREVISSE DAVID RONVAU V1 93 1:26:44 05:47 10.38
372 5346 JOSSE MICHAEL GANG SH 90 1:26:45 05:47 10.38
373 4017 WITMEUR NICOLAS   V1 94 1:26:49 05:47 10.37
374 1134 GONZALEZ JOSÉ KURISTO V4 4 1:26:50 05:47 10.37
375 698 DEMIERBE FREDDY BOUFFIOLS V3 39 1:26:55 05:48 10.36
376 724 MARCHAND OLIVIER BOUFFIOLS V2 95 1:26:55 05:48 10.36
377 5347 VAN DEN ABBEEL QUENTIN GANG SH 91 1:26:56 05:48 10.36
378 482 GRÉGOIRE ARNAUD   V1 95 1:26:58 05:48 10.35
379 5374 DUBUISSON NICOLAS   SH 92 1:27:00 05:48 10.35
380 1115 DELCAMBRE DAPHNÉ   A1 17 1:27:01 05:48 10.35
381 1218 VAN MOLLEKOT CHRISTOPHE   V1 96 1:27:04 05:48 10.34
382 510 GEORGE JEAN-POL   V3 40 1:27:04 05:48 10.34
383 1219 LEYSSENS VALÉRIE   A1 18 1:27:14 05:49 10.32
384 1176 HAELTERMAN FLORENCE SPTWAVRE SD 21 1:27:14 05:49 10.32
385 199 ALAIME SEBASTIEN SPTWAVRE V1 97 1:27:15 05:49 10.32
386 5314 PIRET ADRIEN   SH 93 1:27:22 05:49 10.30
387 1175 DRUINE PAULINE TURBO SD 22 1:27:22 05:49 10.30
388 575 VAN WEDDINGEN ANNE MYSTERE A2 13 1:27:32 05:50 10.28
389 176 VERPLAETSE JOHANNA MYSTERE A1 19 1:27:32 05:50 10.28
390 4051 BRONLET MAURO TRIATHLON ARDEN SH 94 1:27:44 05:51 10.26
391 457 MARGUINIO DANIELLE 1650 A3 4 1:27:54 05:51 10.24
392 251 GODEFRIDI THIERRY MARATHONIEN C-E V3 41 1:27:59 05:52 10.23
393 5376 DELOY EMMANUELLE SPTW SD 23 1:28:06 05:52 10.22
394 665 LACAILLE GUY TITAN V3 42 1:28:28 05:54 10.18
395 1240 LAMOTTE JONATHAN   V1 98 1:28:39 05:54 10.16
396 5292 VANKEERBERGHEN JACQUES JE COURS A INCO V2 96 1:28:42 05:55 10.15
397 91 GEERAERTS JOS MYSTERE V2 97 1:28:46 05:55 10.14
398 4007 NELIS BENOIT JCPMF V1 99 1:28:48 05:55 10.14
399 1149 LEGRAND EMELINE   SD 24 1:28:48 05:55 10.14
400 5284 SLUSE ALAIN WRC LIERNEUX V3 43 1:28:50 05:55 10.13
401 1226 PLAIDEAU CATHELINE   SD 25 1:28:58 05:56 10.12
402 399 ROMBAUX ESTHER   SD 26 1:29:01 05:56 10.11
403 535 ROMBAUX MARC   V2 98 1:29:01 05:56 10.11
404 5296 CORSI MASSIMO   V2 99 1:29:02 05:56 10.11
405 1208 GRAYE JACQUES   V2 100 1:29:04 05:56 10.11
406 1142 ROSE FRANKIE   V3 44 1:29:09 05:56 10.10
407 5385 WERRES MARC   V2 101 1:29:11 05:57 10.09
408 5318 FRANSSEN BEN D-TEAM V2 102 1:29:17 05:57 10.08
409 424 DRIESSENS PIERRE SERUNNER V4 5 1:29:18 05:57 10.08
410 1198 HENRIET CHRISTOPHE   V1 100 1:29:21 05:57 10.08
411 5375 GENIN KATHLEEN RC NAMUR SD 27 1:29:21 05:57 10.08
412 707 NEMANN BRUNO RCNAMUR SH 95 1:29:21 05:57 10.08
413 1135 EGGERICX CLAIRE AG RUNNING TEAM A2 14 1:29:29 05:58 10.06
414 1126 VANDERBECKEN NATHALIE   A1 20 1:29:30 05:58 10.06
415 1197 FERNÉMONT FLORENCE   A2 15 1:29:31 05:58 10.06
416 5286 RENAULD JEAN-CHRISTOPHE   V2 103 1:29:33 05:58 10.05
417 40 COMANDINI LUCIANO RRTCHATELET V3 45 1:29:36 05:58 10.05
418 1124 MANDEVILLE HAMMER KIANA   A1 21 1:29:41 05:59 10.04
419 5306 LAMERANT CHANTAL OXYGENE A2 16 1:29:58 06:00 10.01
420 318 STICKER JOHAN OXYGENE V2 104 1:29:59 06:00 10.00
421 139 BILLAT ETIENNE   V2 105 1:30:04 06:00 10.00
422 888 RUBINO MICHEL RRTCHATELET V2 106 1:30:14 06:01 9.98
423 1143 RONDOU PHILIPPE JCPMF GENAPPE V2 107 1:30:29 06:02 9.95
424 631 BRODKOM NATHALIE   A1 22 1:30:30 06:02 9.95
425 5351 LENAERTS MAUD TOUSPORT A1 23 1:30:30 06:02 9.95
426 36 MESSAOUDI NADIA MYSTERE SD 28 1:30:33 06:02 9.94
427 805 MATHELART PIERRE ANTILOB V2 108 1:30:48 06:03 9.91
428 76 MORRIS NICOLA-ELIZABETH ENJAMBEE A2 17 1:30:50 06:03 9.91
429 1157 ROSE MYRIAM   A2 18 1:30:57 06:04 9.90
430 1246 MIKKELSEN DALIA KURISTO A3 5 1:31:04 06:04 9.89
431 1229 DECRAECKER CÉLINE   SD 29 1:31:28 06:06 9.84
432 452 VANTOMME RÉMY   SH 96 1:31:29 06:06 9.84
433 1171 VAN POPPEL THIERRY LDLV V1 101 1:31:45 06:07 9.81
434 569 VERPOORTEN ROGER INFRA TRAIL LIS V3 46 1:31:58 06:08 9.79
435 1189 LEONE FRANCESCO   V2 109 1:31:59 06:08 9.79
436 587 DION FLORENCE   A1 24 1:32:09 06:08 9.77
437 1235 MAURISSET ALEXANDRE JCPMF V1 102 1:32:36 06:10 9.72
438 827 LIBERTIAUX ANNE RCNAMUR A2 19 1:32:40 06:11 9.72
439 1140 VAN CAENEGHEM VIRGINIE JCPMF MSG A2 20 1:32:46 06:11 9.70
440 5338 PLAISANT VINCENT   V2 110 1:33:01 06:12 9.68
441 5281 DIEUDONNE THIERRY   V1 103 1:33:11 06:13 9.66
442 185 VICO MARIELLE RCNAMUR A2 21 1:33:17 06:13 9.65
443 1214 FERNEMONT SOPHIE   A1 25 1:33:21 06:13 9.64
444 971 VANHEES JEAN-LOUIS GAG V3 47 1:33:24 06:13 9.64
445 120 DE BRUYNE ANNE LDLV A2 22 1:33:33 06:14 9.62
446 5379 DUPUIS LAURENCE JCPMF GENAPPE A1 26 1:33:36 06:14 9.62
447 1211 DONVIL KOEN   V1 104 1:33:39 06:14 9.61
448 1120 LAUREYS CHARLOTTE   A1 27 1:33:41 06:15 9.61
449 309 CHARLIER GUY MYSTERE V2 111 1:33:48 06:15 9.60
450 5295 DUPLAT ANNE   A1 28 1:33:52 06:15 9.59
451 1133 COLLIN MATHIEU   V1 105 1:33:56 06:16 9.58
452 5365 DATH NICOLAS   V1 106 1:33:56 06:16 9.58
453 1251 COSTA LUCIANA   A2 23 1:33:57 06:16 9.58
454 5309 DECHAMAS DAVID   V1 107 1:33:58 06:16 9.58
455 1146 FRÈRE VÉRONIQUE   A2 24 1:34:23 06:17 9.54
456 1119 FERRACIN THIERRY JCPMF V1 108 1:34:35 06:18 9.52
457 1121 DE BELDER JOELLE ZATAC A2 25 1:34:38 06:18 9.51
458 1179 LEGROS VANESSA ZATAC CHARLEROI A1 29 1:34:38 06:18 9.51
459 451 MOUYARD ELODIE ZATAC A1 30 1:34:38 06:18 9.51
460 208 BOUTEFEU JACQUES RRTC V2 112 1:34:46 06:19 9.50
461 732 DE MEES MARC HOOIBERGLOPERS V4 6 1:35:12 06:21 9.46
462 5359 VAN ERP JEAN-PHILIPPE BIOTRAIL V2 113 1:35:25 06:22 9.44
463 5345 VANHOUTTE JOHN RIWA V2 114 1:35:41 06:23 9.41
464 155 AKKERMANS FRANÇOIS   V3 48 1:35:49 06:23 9.40
465 739 AZZOLINI ADRIANO SERUNNERS V2 115 1:36:02 06:24 9.37
466 855 KACIMI ROBERTO   V2 116 1:36:02 06:24 9.37
467 5258 KEYMOLEN ROGER   V3 49 1:36:05 06:24 9.37
468 1151 MALIKIAN MARIE MYSTERE A2 26 1:36:05 06:24 9.37
469 1215 AQUESBI LAURENT   V1 109 1:36:07 06:24 9.37
470 3849 DE FRE HANS   V2 117 1:36:09 06:24 9.36
471 4031 DANCOT SOPHIE   A1 31 1:36:11 06:25 9.36
472 5272 BERTRAND MATHIEU   SH 97 1:36:15 06:25 9.35
473 5361 CLEMENT JACQUES SPT WAVRE V3 50 1:36:16 06:25 9.35
474 5349 DE WINTER HILDE   A2 27 1:37:00 06:28 9.28
475 5303 DUFAYS ALAIN   V2 118 1:37:05 06:28 9.27
476 440 ETIENNE CHRISTIAN RCNAMUR V3 51 1:37:08 06:28 9.27
477 62 TROIA GIOVANNA ENJAMBEE A2 28 1:37:08 06:28 9.27
478 260 DE BERDT PATRICIA SPTWAVRE A3 6 1:37:08 06:28 9.27
479 5261 GOUDMAEKER CLAUDE JE COURS A INCO V2 119 1:37:16 06:29 9.26
480 4009 DUBOIS BERTHE LES BOUFFIOLS A3 7 1:37:19 06:29 9.25
481 3850 MASSART VICTOR LES BOUFFIOLS V3 52 1:37:19 06:29 9.25
482 488 MAGEIN LOUIS   SH 98 1:37:35 06:30 9.23
483 881 HOURMAN GWENDOLINE ENJAMBEE A2 29 1:37:42 06:31 9.21
484 31 VILAIN CHRISTIANE SPTWAVRE A3 8 1:37:52 06:31 9.20
485 1156 DEMARET NATHALIE JCPMF GENAPPE SD 30 1:38:04 06:32 9.18
486 5263 GUILMAIN JEAN LES LENDEMAINS V3 53 1:38:05 06:32 9.18
487 1173 CHARLES DOBIAS STEPHANIE JCPMF GENAPPE A1 32 1:38:07 06:32 9.18
488 1136 FRANÇOIS NATHALIE JCPMF GENAPPE A1 33 1:38:09 06:32 9.17
489 476 MARIS WIM JOGGANS V2 120 1:38:22 06:33 9.15
490 5298 VOKAR ETIENNE USBW ROAD TEAM V4 7 1:39:03 06:36 9.09
491 633 MATTEZ GENEVIÈVE AMARANTE COACH A2 30 1:39:16 06:37 9.07
492 590 BALSAT PHILIPPE BJB V2 121 1:39:27 06:38 9.05
493 5299 LEMERRE LAURE MYSTERE JF 1 1:39:39 06:38 9.03
494 713 DUSSART JEAN-PIERRE   V3 54 1:39:42 06:39 9.03
495 1242 DIERICKX CHRISTOPHE   V1 110 1:39:55 06:40 9.01
496 708 MOUYART PHILIPPE WAL'COURSE V2 122 1:40:06 06:40 8.99
497 771 COPET FABIAN   V1 111 1:40:06 06:40 8.99
498 520 BACCARI SAMIA   A1 34 1:40:08 06:40 8.99
499 1182 VANELSLANDER RINUS   V2 123 1:40:23 06:41 8.97
500 5357 BANDIN MARC   V3 55 1:40:31 06:42 8.96
501 350 GEVENOIS MARIE-ROSE   A3 9 1:40:39 06:42 8.94
502 1248 FERNÁNDEZ JOSE BTC V4 8 1:40:56 06:44 8.92
503 5499 KAUFMANN ALAIN JOGGANS V3 56 1:41:03 06:44 8.91
504 10 HERCOT MARIE-ASTRID RRTCHATELET A3 10 1:41:24 06:45 8.88
505 7 HENNERESSE ISABELLE JOGGANS A1 35 1:41:25 06:46 8.88
506 1259 CERF STEPHANIE   A2 31 1:41:25 06:46 8.88
507 5273 LEMERRE JEANETTE MYSTERE A1 36 1:41:25 06:46 8.88
508 1233 FAJTMANN CLAUDE MYSTERE V3 57 1:41:48 06:47 8.84
509 5285 HUBERT CORALIE JCPMF RAMILLIES SD 31 1:42:05 06:48 8.82
510 5495 YANOUK MATHIEU   A1 37 1:42:15 06:49 8.80
511 277 JAUMOTTE CAROLINE RCNAMUR A3 11 1:42:24 06:49 8.79
512 5262 HUON PIERRE RCB V3 58 1:42:24 06:49 8.79
513 1191 LAMBERT BERNADETTE SPTWAVRE A3 12 1:42:41 06:51 8.77
514 389 TAVERNE VERONIQUE ENJAMBEE A2 32 1:42:46 06:51 8.76
515 358 MATTHIEU FABIENNE ENJAMBEE A2 33 1:42:49 06:51 8.76
516 1232 GRANDMONT ANITA JCPMF GENAPPE A2 34 1:42:59 06:52 8.74
517 1184 HELOU NADÈGE   A2 35 1:43:06 06:52 8.73
518 4015 DYKMANS YVES   V3 59 1:43:09 06:52 8.73
519 5307 GOPPIETERS RUDY   SH 99 1:43:26 06:54 8.70
520 5329 VAN CRAENENBROECK PASCAL LDLV V2 124 1:43:28 06:54 8.70
521 317 GUIRCHE ALBERT SPIBO V3 60 1:43:49 06:55 8.67
522 145 GRANDMONT ANTONIN ARCH SH 100 1:44:04 06:56 8.65
523 127 GRANDMONT ANDRE ARCH V2 125 1:44:04 06:56 8.65
524 1178 JABER ALICIA JCPMF GENAPPE SD 32 1:44:32 06:58 8.61
525 1154 CLOSSE CARINE MYSTERE A2 36 1:45:08 07:00 8.56
526 530 VAN LOO ARMAND JOGGANS V4 9 1:45:27 07:02 8.54
527 673 BONVARLEZ RUDI   V2 126 1:45:45 07:03 8.51
528 706 TURPIN PHILIPPE   V3 61 1:46:03 07:04 8.49
529 368 VIAENE BERNARD   V4 10 1:47:06 07:08 8.41
530 834 BOULANGER BERNADETTE SPTWAVRE A3 13 1:47:18 07:09 8.39
531 1177 MAES SERGE   V2 127 1:47:33 07:10 8.37
532 700 FIVET ALAIN   V3 62 1:47:43 07:11 8.36
533 4014 FANCHINI ERIC   V2 128 1:48:13 07:13 8.32
534 613 SCHOEPS IVAN   V4 11 1:48:39 07:14 8.29
535 356 SAUCIN LUC RRTCHATELET V2 129 1:48:47 07:15 8.28
536 311 EVRARD JOSIANNE   A3 14 1:48:59 07:16 8.26
537 182 BAETEN EDITH RCNAMUR A2 37 1:49:26 07:18 8.23
538 8 ANTOINE ALAIN RCNAMUR V2 130 1:49:26 07:18 8.23
539 5304 ROMAIN BERNARD   V3 63 1:51:15 07:25 8.09
540 179 ROUSSEAUX AGNES   A1 38 1:51:15 07:25 8.09
541 65 SEGHERS RITA   A3 15 1:52:00 07:28 8.04
542 459 LEJEUNE CHRISTIAN 1650 V3 64 1:52:33 07:30 8.00
543 5500 NADINE NADINE   A2 38 1:52:40 07:31 7.99
544 1253 CASTILLO RACHEL NAC A1 39 1:53:05 07:32 7.96
545 1202 CAZALLE CELINE NAC A1 40 1:53:05 07:32 7.96
546 4005 JONCKERS JACQUELINE   A2 39 1:53:05 07:32 7.96
547 1263 MELCHIOR FABIENNE NAC A2 40 1:53:05 07:32 7.96
548 5340 LAMBILLOTTE DAVY   V1 112 1:53:25 07:34 7.94
549 5388 FOURMEDUX FABIENNE   A1 41 1:53:25 07:34 7.94
550 5325 GILLIOT ALAIN   V2 131 1:53:25 07:34 7.94
551 5302 LOCUS DANIELLE JAMES A2 41 1:54:23 07:37 7.87
552 443 DEMAZY CATHERINE RCNAMUR A2 42 1:57:23 07:49 7.67
553 4030 MORTIER FREDERIC   V1 113 2:00:40 08:03 7.46
554 257 LUKOJ NAWEJ JIM   V3 65 2:01:11 08:05 7.43
555 501 GOFFAUX BRIGITTE RCNAMUR A2 43 2:10:15 08:41 6.91
556 4006 MUYTJENS RENE ANTILOB V4 12 2:14:16 08:57 6.71